sensor_id;sensor_type;location;lat;lon;timestamp;P1;durP1;ratioP1;P2;durP2;ratioP2
37945;SDS011;23769;52.478;13.448;2022-12-16T00:00:01;78.20;;;32.72;;
37945;SDS011;23769;52.478;13.448;2022-12-16T00:02:29;79.25;;;34.13;;
37945;SDS011;23769;52.478;13.448;2022-12-16T00:04:56;69.00;;;31.60;;
37945;SDS011;23769;52.478;13.448;2022-12-16T00:07:23;71.13;;;32.80;;
37945;SDS011;23769;52.478;13.448;2022-12-16T00:09:51;79.00;;;33.05;;
37945;SDS011;23769;52.478;13.448;2022-12-16T00:12:19;73.43;;;32.92;;
37945;SDS011;23769;52.478;13.448;2022-12-16T00:14:46;90.75;;;37.30;;
37945;SDS011;23769;52.478;13.448;2022-12-16T00:17:14;83.53;;;31.65;;
37945;SDS011;23769;52.478;13.448;2022-12-16T00:19:41;71.35;;;31.88;;
37945;SDS011;23769;52.478;13.448;2022-12-16T00:22:08;76.22;;;31.25;;
37945;SDS011;23769;52.478;13.448;2022-12-16T00:24:35;75.60;;;33.60;;
37945;SDS011;23769;52.478;13.448;2022-12-16T00:27:03;67.88;;;31.38;;
37945;SDS011;23769;52.478;13.448;2022-12-16T00:29:31;68.57;;;30.55;;
37945;SDS011;23769;52.478;13.448;2022-12-16T00:31:59;66.30;;;29.08;;
37945;SDS011;23769;52.478;13.448;2022-12-16T00:34:26;62.33;;;30.15;;
37945;SDS011;23769;52.478;13.448;2022-12-16T00:36:54;65.60;;;28.50;;
37945;SDS011;23769;52.478;13.448;2022-12-16T00:39:21;69.22;;;30.55;;
37945;SDS011;23769;52.478;13.448;2022-12-16T00:41:48;65.93;;;31.40;;
37945;SDS011;23769;52.478;13.448;2022-12-16T00:44:16;61.30;;;29.17;;
37945;SDS011;23769;52.478;13.448;2022-12-16T00:46:44;68.05;;;29.98;;
37945;SDS011;23769;52.478;13.448;2022-12-16T00:49:11;65.43;;;29.92;;
37945;SDS011;23769;52.478;13.448;2022-12-16T00:51:39;69.68;;;29.25;;
37945;SDS011;23769;52.478;13.448;2022-12-16T00:54:07;66.65;;;28.98;;
37945;SDS011;23769;52.478;13.448;2022-12-16T00:56:34;74.40;;;30.85;;
37945;SDS011;23769;52.478;13.448;2022-12-16T00:59:01;64.65;;;29.35;;
37945;SDS011;23769;52.478;13.448;2022-12-16T01:01:28;58.33;;;28.15;;
37945;SDS011;23769;52.478;13.448;2022-12-16T01:03:57;66.40;;;30.52;;
37945;SDS011;23769;52.478;13.448;2022-12-16T01:06:24;64.45;;;29.27;;
37945;SDS011;23769;52.478;13.448;2022-12-16T01:08:51;68.88;;;31.27;;
37945;SDS011;23769;52.478;13.448;2022-12-16T01:11:19;66.38;;;29.90;;
37945;SDS011;23769;52.478;13.448;2022-12-16T01:13:48;71.07;;;30.77;;
37945;SDS011;23769;52.478;13.448;2022-12-16T01:16:15;70.88;;;30.33;;
37945;SDS011;23769;52.478;13.448;2022-12-16T01:18:43;71.65;;;30.95;;
37945;SDS011;23769;52.478;13.448;2022-12-16T01:21:12;70.28;;;29.75;;
37945;SDS011;23769;52.478;13.448;2022-12-16T01:23:40;71.88;;;31.73;;
37945;SDS011;23769;52.478;13.448;2022-12-16T01:26:08;75.55;;;30.88;;
37945;SDS011;23769;52.478;13.448;2022-12-16T01:28:36;64.97;;;29.20;;
37945;SDS011;23769;52.478;13.448;2022-12-16T01:31:03;79.22;;;29.77;;
37945;SDS011;23769;52.478;13.448;2022-12-16T01:33:31;73.55;;;32.25;;
37945;SDS011;23769;52.478;13.448;2022-12-16T01:35:59;85.80;;;34.47;;
37945;SDS011;23769;52.478;13.448;2022-12-16T01:38:28;74.75;;;32.42;;
37945;SDS011;23769;52.478;13.448;2022-12-16T01:40:55;75.00;;;29.45;;
37945;SDS011;23769;52.478;13.448;2022-12-16T01:43:24;75.03;;;32.17;;
37945;SDS011;23769;52.478;13.448;2022-12-16T01:45:52;63.97;;;30.10;;
37945;SDS011;23769;52.478;13.448;2022-12-16T01:48:21;71.82;;;30.92;;
37945;SDS011;23769;52.478;13.448;2022-12-16T01:50:51;70.65;;;30.05;;
37945;SDS011;23769;52.478;13.448;2022-12-16T01:53:20;70.40;;;30.67;;
37945;SDS011;23769;52.478;13.448;2022-12-16T01:55:49;76.03;;;32.33;;
37945;SDS011;23769;52.478;13.448;2022-12-16T01:58:19;66.03;;;29.90;;
37945;SDS011;23769;52.478;13.448;2022-12-16T02:00:47;74.82;;;30.08;;
37945;SDS011;23769;52.478;13.448;2022-12-16T02:03:14;68.88;;;31.08;;
37945;SDS011;23769;52.478;13.448;2022-12-16T02:05:42;76.85;;;30.83;;
37945;SDS011;23769;52.478;13.448;2022-12-16T02:08:11;66.05;;;28.75;;
37945;SDS011;23769;52.478;13.448;2022-12-16T02:10:44;71.15;;;30.88;;
37945;SDS011;23769;52.478;13.448;2022-12-16T02:13:18;63.85;;;28.42;;
37945;SDS011;23769;52.478;13.448;2022-12-16T02:15:50;64.45;;;28.15;;
37945;SDS011;23769;52.478;13.448;2022-12-16T02:18:20;62.10;;;27.50;;
37945;SDS011;23769;52.478;13.448;2022-12-16T02:21:00;69.63;;;30.05;;
37945;SDS011;23769;52.478;13.448;2022-12-16T02:26:32;72.45;;;29.02;;
37945;SDS011;23769;52.478;13.448;2022-12-16T02:29:10;73.95;;;30.25;;
37945;SDS011;23769;52.478;13.448;2022-12-16T02:31:43;75.13;;;28.30;;
37945;SDS011;23769;52.478;13.448;2022-12-16T02:34:16;67.13;;;28.73;;
37945;SDS011;23769;52.478;13.448;2022-12-16T02:36:54;72.15;;;28.40;;
37945;SDS011;23769;52.478;13.448;2022-12-16T02:39:24;66.25;;;28.52;;
37945;SDS011;23769;52.478;13.448;2022-12-16T02:41:55;82.47;;;32.85;;
37945;SDS011;23769;52.478;13.448;2022-12-16T02:44:25;66.03;;;28.30;;
37945;SDS011;23769;52.478;13.448;2022-12-16T02:46:56;63.45;;;27.85;;
37945;SDS011;23769;52.478;13.448;2022-12-16T02:49:42;70.80;;;30.42;;
37945;SDS011;23769;52.478;13.448;2022-12-16T02:52:10;69.65;;;29.73;;
37945;SDS011;23769;52.478;13.448;2022-12-16T02:54:38;73.35;;;30.40;;
37945;SDS011;23769;52.478;13.448;2022-12-16T02:57:07;67.43;;;29.38;;
37945;SDS011;23769;52.478;13.448;2022-12-16T02:59:39;60.63;;;26.67;;
37945;SDS011;23769;52.478;13.448;2022-12-16T03:02:11;62.25;;;26.80;;
37945;SDS011;23769;52.478;13.448;2022-12-16T03:04:42;65.57;;;28.52;;
37945;SDS011;23769;52.478;13.448;2022-12-16T03:07:11;68.95;;;29.13;;
37945;SDS011;23769;52.478;13.448;2022-12-16T03:09:39;61.78;;;28.17;;
37945;SDS011;23769;52.478;13.448;2022-12-16T03:12:08;62.20;;;27.67;;
37945;SDS011;23769;52.478;13.448;2022-12-16T03:14:36;67.57;;;28.65;;
37945;SDS011;23769;52.478;13.448;2022-12-16T03:17:05;70.35;;;27.40;;
37945;SDS011;23769;52.478;13.448;2022-12-16T03:19:35;78.43;;;29.67;;
37945;SDS011;23769;52.478;13.448;2022-12-16T03:22:05;62.95;;;28.35;;
37945;SDS011;23769;52.478;13.448;2022-12-16T03:24:33;66.05;;;27.80;;
37945;SDS011;23769;52.478;13.448;2022-12-16T03:27:04;64.97;;;28.13;;
37945;SDS011;23769;52.478;13.448;2022-12-16T03:29:35;66.65;;;30.08;;
37945;SDS011;23769;52.478;13.448;2022-12-16T03:32:04;68.47;;;30.58;;
37945;SDS011;23769;52.478;13.448;2022-12-16T03:34:35;68.53;;;29.30;;
37945;SDS011;23769;52.478;13.448;2022-12-16T03:37:04;72.20;;;29.63;;
37945;SDS011;23769;52.478;13.448;2022-12-16T03:39:33;75.50;;;31.20;;
37945;SDS011;23769;52.478;13.448;2022-12-16T03:42:00;66.97;;;27.98;;
37945;SDS011;23769;52.478;13.448;2022-12-16T03:44:28;72.93;;;29.63;;
37945;SDS011;23769;52.478;13.448;2022-12-16T03:46:56;69.50;;;29.40;;
37945;SDS011;23769;52.478;13.448;2022-12-16T03:49:24;66.88;;;30.65;;
37945;SDS011;23769;52.478;13.448;2022-12-16T03:51:52;62.85;;;27.77;;
37945;SDS011;23769;52.478;13.448;2022-12-16T03:54:20;67.20;;;30.02;;
37945;SDS011;23769;52.478;13.448;2022-12-16T03:56:48;64.55;;;28.08;;
37945;SDS011;23769;52.478;13.448;2022-12-16T03:59:15;70.28;;;29.77;;
37945;SDS011;23769;52.478;13.448;2022-12-16T04:01:42;66.30;;;29.17;;
37945;SDS011;23769;52.478;13.448;2022-12-16T04:04:10;70.65;;;29.85;;
37945;SDS011;23769;52.478;13.448;2022-12-16T04:06:37;69.50;;;30.45;;
37945;SDS011;23769;52.478;13.448;2022-12-16T04:09:06;73.40;;;29.75;;
37945;SDS011;23769;52.478;13.448;2022-12-16T04:11:33;71.35;;;30.95;;
37945;SDS011;23769;52.478;13.448;2022-12-16T04:14:18;64.63;;;29.40;;
37945;SDS011;23769;52.478;13.448;2022-12-16T04:17:03;68.18;;;29.05;;
37945;SDS011;23769;52.478;13.448;2022-12-16T04:19:48;71.13;;;30.95;;
37945;SDS011;23769;52.478;13.448;2022-12-16T04:22:33;67.55;;;30.63;;
37945;SDS011;23769;52.478;13.448;2022-12-16T04:25:20;66.25;;;28.80;;
37945;SDS011;23769;52.478;13.448;2022-12-16T04:27:48;67.95;;;29.63;;
37945;SDS011;23769;52.478;13.448;2022-12-16T04:30:16;70.68;;;30.35;;
37945;SDS011;23769;52.478;13.448;2022-12-16T04:32:43;67.30;;;29.58;;
37945;SDS011;23769;52.478;13.448;2022-12-16T04:35:28;64.85;;;28.20;;
37945;SDS011;23769;52.478;13.448;2022-12-16T04:38:13;64.82;;;28.42;;
37945;SDS011;23769;52.478;13.448;2022-12-16T04:40:59;57.72;;;26.25;;
37945;SDS011;23769;52.478;13.448;2022-12-16T04:43:44;66.00;;;29.30;;
37945;SDS011;23769;52.478;13.448;2022-12-16T04:46:29;63.60;;;28.40;;
37945;SDS011;23769;52.478;13.448;2022-12-16T04:49:14;63.47;;;27.77;;
37945;SDS011;23769;52.478;13.448;2022-12-16T04:51:59;70.72;;;28.98;;
37945;SDS011;23769;52.478;13.448;2022-12-16T04:54:43;60.30;;;26.98;;
37945;SDS011;23769;52.478;13.448;2022-12-16T04:57:29;69.25;;;29.27;;
37945;SDS011;23769;52.478;13.448;2022-12-16T05:00:14;65.55;;;28.33;;
37945;SDS011;23769;52.478;13.448;2022-12-16T05:02:59;60.00;;;27.63;;
37945;SDS011;23769;52.478;13.448;2022-12-16T05:05:44;67.40;;;30.17;;
37945;SDS011;23769;52.478;13.448;2022-12-16T05:08:29;71.80;;;29.42;;
37945;SDS011;23769;52.478;13.448;2022-12-16T05:11:14;69.60;;;29.40;;
37945;SDS011;23769;52.478;13.448;2022-12-16T05:14:00;67.68;;;28.88;;
37945;SDS011;23769;52.478;13.448;2022-12-16T05:16:45;69.22;;;30.42;;
37945;SDS011;23769;52.478;13.448;2022-12-16T05:19:29;69.55;;;28.80;;
37945;SDS011;23769;52.478;13.448;2022-12-16T05:22:14;65.10;;;29.30;;
37945;SDS011;23769;52.478;13.448;2022-12-16T05:24:59;70.55;;;29.45;;
37945;SDS011;23769;52.478;13.448;2022-12-16T05:27:43;69.45;;;29.67;;
37945;SDS011;23769;52.478;13.448;2022-12-16T05:30:29;67.03;;;28.95;;
37945;SDS011;23769;52.478;13.448;2022-12-16T05:33:14;71.82;;;32.00;;
37945;SDS011;23769;52.478;13.448;2022-12-16T05:35:59;80.40;;;33.20;;
37945;SDS011;23769;52.478;13.448;2022-12-16T05:38:44;72.30;;;29.20;;
37945;SDS011;23769;52.478;13.448;2022-12-16T05:41:28;92.57;;;37.53;;
37945;SDS011;23769;52.478;13.448;2022-12-16T05:44:13;109.78;;;43.03;;
37945;SDS011;23769;52.478;13.448;2022-12-16T05:46:59;68.93;;;29.90;;
37945;SDS011;23769;52.478;13.448;2022-12-16T05:49:40;72.47;;;31.40;;
37945;SDS011;23769;52.478;13.448;2022-12-16T05:52:25;69.53;;;31.30;;
37945;SDS011;23769;52.478;13.448;2022-12-16T05:55:09;64.57;;;30.98;;
37945;SDS011;23769;52.478;13.448;2022-12-16T05:57:54;71.57;;;30.77;;
37945;SDS011;23769;52.478;13.448;2022-12-16T06:00:39;73.60;;;31.42;;
37945;SDS011;23769;52.478;13.448;2022-12-16T06:03:25;70.20;;;29.80;;
37945;SDS011;23769;52.478;13.448;2022-12-16T06:06:10;66.95;;;31.90;;
37945;SDS011;23769;52.478;13.448;2022-12-16T06:08:54;68.88;;;30.08;;
37945;SDS011;23769;52.478;13.448;2022-12-16T06:11:39;67.88;;;29.50;;
37945;SDS011;23769;52.478;13.448;2022-12-16T06:14:24;66.57;;;28.55;;
37945;SDS011;23769;52.478;13.448;2022-12-16T06:17:08;63.63;;;29.38;;
37945;SDS011;23769;52.478;13.448;2022-12-16T06:19:55;75.68;;;31.08;;
37945;SDS011;23769;52.478;13.448;2022-12-16T06:22:39;61.90;;;27.85;;
37945;SDS011;23769;52.478;13.448;2022-12-16T06:25:24;62.72;;;29.55;;
37945;SDS011;23769;52.478;13.448;2022-12-16T06:28:23;60.97;;;28.48;;
37945;SDS011;23769;52.478;13.448;2022-12-16T06:31:08;72.25;;;31.85;;
37945;SDS011;23769;52.478;13.448;2022-12-16T06:33:53;68.70;;;29.42;;
37945;SDS011;23769;52.478;13.448;2022-12-16T06:36:39;68.30;;;30.23;;
37945;SDS011;23769;52.478;13.448;2022-12-16T06:39:24;68.70;;;30.40;;
37945;SDS011;23769;52.478;13.448;2022-12-16T06:42:11;75.35;;;30.85;;
37945;SDS011;23769;52.478;13.448;2022-12-16T06:44:56;69.15;;;30.83;;
37945;SDS011;23769;52.478;13.448;2022-12-16T06:47:41;77.50;;;31.48;;
37945;SDS011;23769;52.478;13.448;2022-12-16T06:50:26;69.25;;;30.15;;
37945;SDS011;23769;52.478;13.448;2022-12-16T06:53:12;80.40;;;33.50;;
37945;SDS011;23769;52.478;13.448;2022-12-16T06:55:57;70.40;;;30.05;;
37945;SDS011;23769;52.478;13.448;2022-12-16T06:58:42;68.32;;;30.27;;
37945;SDS011;23769;52.478;13.448;2022-12-16T07:01:27;74.53;;;34.47;;
37945;SDS011;23769;52.478;13.448;2022-12-16T07:04:20;69.22;;;30.17;;
37945;SDS011;23769;52.478;13.448;2022-12-16T07:07:05;67.50;;;30.38;;
37945;SDS011;23769;52.478;13.448;2022-12-16T07:09:51;73.53;;;31.55;;
37945;SDS011;23769;52.478;13.448;2022-12-16T07:12:36;70.00;;;31.35;;
37945;SDS011;23769;52.478;13.448;2022-12-16T07:15:21;72.07;;;30.00;;
37945;SDS011;23769;52.478;13.448;2022-12-16T07:18:17;74.07;;;32.47;;
37945;SDS011;23769;52.478;13.448;2022-12-16T07:21:02;67.50;;;29.88;;
37945;SDS011;23769;52.478;13.448;2022-12-16T07:23:46;66.20;;;29.90;;
37945;SDS011;23769;52.478;13.448;2022-12-16T07:26:32;62.53;;;29.73;;
37945;SDS011;23769;52.478;13.448;2022-12-16T07:29:17;63.60;;;30.65;;
37945;SDS011;23769;52.478;13.448;2022-12-16T07:32:02;73.15;;;31.17;;
37945;SDS011;23769;52.478;13.448;2022-12-16T07:34:47;73.60;;;32.80;;
37945;SDS011;23769;52.478;13.448;2022-12-16T07:37:35;76.55;;;31.33;;
37945;SDS011;23769;52.478;13.448;2022-12-16T07:40:21;68.93;;;30.20;;
37945;SDS011;23769;52.478;13.448;2022-12-16T07:43:07;70.50;;;31.10;;
37945;SDS011;23769;52.478;13.448;2022-12-16T07:45:52;64.03;;;30.90;;
37945;SDS011;23769;52.478;13.448;2022-12-16T07:48:37;69.13;;;30.05;;
37945;SDS011;23769;52.478;13.448;2022-12-16T07:51:21;70.30;;;30.83;;
37945;SDS011;23769;52.478;13.448;2022-12-16T07:54:06;68.57;;;31.48;;
37945;SDS011;23769;52.478;13.448;2022-12-16T07:56:51;65.78;;;30.15;;
37945;SDS011;23769;52.478;13.448;2022-12-16T07:59:38;68.78;;;28.83;;
37945;SDS011;23769;52.478;13.448;2022-12-16T08:02:22;65.65;;;29.17;;
37945;SDS011;23769;52.478;13.448;2022-12-16T08:05:07;66.45;;;30.42;;
37945;SDS011;23769;52.478;13.448;2022-12-16T08:07:52;67.68;;;29.88;;
37945;SDS011;23769;52.478;13.448;2022-12-16T08:10:37;57.03;;;26.52;;
37945;SDS011;23769;52.478;13.448;2022-12-16T08:13:21;65.82;;;28.63;;
37945;SDS011;23769;52.478;13.448;2022-12-16T08:16:07;69.40;;;30.15;;
37945;SDS011;23769;52.478;13.448;2022-12-16T08:18:52;69.07;;;30.45;;
37945;SDS011;23769;52.478;13.448;2022-12-16T08:21:52;70.78;;;30.40;;
37945;SDS011;23769;52.478;13.448;2022-12-16T08:24:36;64.18;;;29.95;;
37945;SDS011;23769;52.478;13.448;2022-12-16T08:27:21;66.70;;;30.55;;
37945;SDS011;23769;52.478;13.448;2022-12-16T08:30:06;61.83;;;28.52;;
37945;SDS011;23769;52.478;13.448;2022-12-16T08:32:52;72.03;;;29.13;;
37945;SDS011;23769;52.478;13.448;2022-12-16T08:35:37;68.55;;;29.75;;
37945;SDS011;23769;52.478;13.448;2022-12-16T08:38:22;70.40;;;30.58;;
37945;SDS011;23769;52.478;13.448;2022-12-16T08:41:06;65.68;;;29.00;;
37945;SDS011;23769;52.478;13.448;2022-12-16T08:43:51;67.68;;;28.90;;
37945;SDS011;23769;52.478;13.448;2022-12-16T08:46:36;66.35;;;30.48;;
37945;SDS011;23769;52.478;13.448;2022-12-16T08:49:22;67.80;;;31.98;;
37945;SDS011;23769;52.478;13.448;2022-12-16T08:52:06;69.22;;;30.35;;
37945;SDS011;23769;52.478;13.448;2022-12-16T08:54:51;68.95;;;30.73;;
37945;SDS011;23769;52.478;13.448;2022-12-16T08:57:41;69.32;;;31.15;;
37945;SDS011;23769;52.478;13.448;2022-12-16T09:00:26;68.95;;;31.27;;
37945;SDS011;23769;52.478;13.448;2022-12-16T09:03:11;67.20;;;30.38;;
37945;SDS011;23769;52.478;13.448;2022-12-16T09:05:58;62.45;;;30.52;;
37945;SDS011;23769;52.478;13.448;2022-12-16T09:08:43;67.03;;;32.20;;
37945;SDS011;23769;52.478;13.448;2022-12-16T09:11:27;62.70;;;29.73;;
37945;SDS011;23769;52.478;13.448;2022-12-16T09:14:12;61.53;;;29.58;;
37945;SDS011;23769;52.478;13.448;2022-12-16T09:16:57;70.43;;;30.77;;
37945;SDS011;23769;52.478;13.448;2022-12-16T09:19:41;62.72;;;30.13;;
37945;SDS011;23769;52.478;13.448;2022-12-16T09:22:28;59.33;;;28.67;;
37945;SDS011;23769;52.478;13.448;2022-12-16T09:25:09;61.10;;;28.98;;
37945;SDS011;23769;52.478;13.448;2022-12-16T09:27:53;60.85;;;28.50;;
37945;SDS011;23769;52.478;13.448;2022-12-16T09:30:38;59.92;;;28.10;;
37945;SDS011;23769;52.478;13.448;2022-12-16T09:33:23;56.65;;;26.60;;
37945;SDS011;23769;52.478;13.448;2022-12-16T09:36:07;60.58;;;29.58;;
37945;SDS011;23769;52.478;13.448;2022-12-16T09:38:54;61.40;;;30.67;;
37945;SDS011;23769;52.478;13.448;2022-12-16T09:41:40;62.40;;;29.95;;
37945;SDS011;23769;52.478;13.448;2022-12-16T09:44:29;62.40;;;28.52;;
37945;SDS011;23769;52.478;13.448;2022-12-16T09:47:18;58.85;;;28.58;;
37945;SDS011;23769;52.478;13.448;2022-12-16T09:50:22;60.72;;;28.45;;
37945;SDS011;23769;52.478;13.448;2022-12-16T09:53:04;58.15;;;28.25;;
37945;SDS011;23769;52.478;13.448;2022-12-16T09:55:52;59.75;;;27.02;;
37945;SDS011;23769;52.478;13.448;2022-12-16T09:58:37;67.18;;;28.38;;
37945;SDS011;23769;52.478;13.448;2022-12-16T10:01:23;65.93;;;29.88;;
37945;SDS011;23769;52.478;13.448;2022-12-16T10:04:09;65.78;;;31.05;;
37945;SDS011;23769;52.478;13.448;2022-12-16T10:06:56;57.50;;;29.77;;
37945;SDS011;23769;52.478;13.448;2022-12-16T10:09:42;55.00;;;27.42;;
37945;SDS011;23769;52.478;13.448;2022-12-16T10:12:34;64.57;;;29.77;;
37945;SDS011;23769;52.478;13.448;2022-12-16T10:15:24;50.63;;;26.33;;
37945;SDS011;23769;52.478;13.448;2022-12-16T10:18:14;55.63;;;27.33;;
37945;SDS011;23769;52.478;13.448;2022-12-16T10:21:01;55.10;;;28.30;;
37945;SDS011;23769;52.478;13.448;2022-12-16T10:23:48;53.08;;;26.38;;
37945;SDS011;23769;52.478;13.448;2022-12-16T10:26:41;51.90;;;26.88;;
37945;SDS011;23769;52.478;13.448;2022-12-16T10:29:31;53.15;;;26.60;;
37945;SDS011;23769;52.478;13.448;2022-12-16T10:32:18;52.08;;;25.27;;
37945;SDS011;23769;52.478;13.448;2022-12-16T10:35:13;55.25;;;28.08;;
37945;SDS011;23769;52.478;13.448;2022-12-16T10:38:00;51.88;;;27.27;;
37945;SDS011;23769;52.478;13.448;2022-12-16T10:40:46;55.50;;;26.92;;
37945;SDS011;23769;52.478;13.448;2022-12-16T10:43:33;50.22;;;25.73;;
37945;SDS011;23769;52.478;13.448;2022-12-16T10:46:21;51.72;;;26.80;;
37945;SDS011;23769;52.478;13.448;2022-12-16T10:49:08;53.60;;;25.92;;
37945;SDS011;23769;52.478;13.448;2022-12-16T10:51:55;50.47;;;26.15;;
37945;SDS011;23769;52.478;13.448;2022-12-16T10:54:41;51.67;;;25.60;;
37945;SDS011;23769;52.478;13.448;2022-12-16T10:57:30;50.10;;;25.52;;
37945;SDS011;23769;52.478;13.448;2022-12-16T11:00:17;58.72;;;29.27;;
37945;SDS011;23769;52.478;13.448;2022-12-16T11:03:18;51.38;;;27.08;;
37945;SDS011;23769;52.478;13.448;2022-12-16T11:06:02;59.80;;;29.30;;
37945;SDS011;23769;52.478;13.448;2022-12-16T11:08:47;57.88;;;29.38;;
37945;SDS011;23769;52.478;13.448;2022-12-16T11:11:32;55.13;;;26.88;;
37945;SDS011;23769;52.478;13.448;2022-12-16T11:14:23;50.65;;;27.08;;
37945;SDS011;23769;52.478;13.448;2022-12-16T11:17:13;51.35;;;27.15;;
37945;SDS011;23769;52.478;13.448;2022-12-16T11:20:10;45.30;;;23.25;;
37945;SDS011;23769;52.478;13.448;2022-12-16T11:26:08;52.03;;;26.48;;
37945;SDS011;23769;52.478;13.448;2022-12-16T11:29:00;51.22;;;25.42;;
37945;SDS011;23769;52.478;13.448;2022-12-16T11:31:46;49.85;;;25.80;;
37945;SDS011;23769;52.478;13.448;2022-12-16T11:34:32;44.53;;;23.73;;
37945;SDS011;23769;52.478;13.448;2022-12-16T11:37:19;58.78;;;27.02;;
37945;SDS011;23769;52.478;13.448;2022-12-16T11:40:05;54.20;;;27.08;;
37945;SDS011;23769;52.478;13.448;2022-12-16T11:42:51;56.33;;;27.75;;
37945;SDS011;23769;52.478;13.448;2022-12-16T11:45:36;49.97;;;26.02;;
37945;SDS011;23769;52.478;13.448;2022-12-16T11:48:26;51.67;;;26.42;;
37945;SDS011;23769;52.478;13.448;2022-12-16T11:51:13;54.15;;;27.23;;
37945;SDS011;23769;52.478;13.448;2022-12-16T11:54:04;51.55;;;26.23;;
37945;SDS011;23769;52.478;13.448;2022-12-16T11:56:51;54.35;;;29.05;;
37945;SDS011;23769;52.478;13.448;2022-12-16T11:59:39;56.50;;;28.50;;
37945;SDS011;23769;52.478;13.448;2022-12-16T12:02:25;51.28;;;25.08;;
37945;SDS011;23769;52.478;13.448;2022-12-16T12:05:13;54.80;;;29.10;;
37945;SDS011;23769;52.478;13.448;2022-12-16T12:07:59;58.22;;;27.95;;
37945;SDS011;23769;52.478;13.448;2022-12-16T12:10:50;47.92;;;25.25;;
37945;SDS011;23769;52.478;13.448;2022-12-16T12:13:42;48.25;;;25.10;;
37945;SDS011;23769;52.478;13.448;2022-12-16T12:16:31;46.45;;;24.10;;
37945;SDS011;23769;52.478;13.448;2022-12-16T12:19:18;51.75;;;23.42;;
37945;SDS011;23769;52.478;13.448;2022-12-16T12:22:06;44.17;;;22.48;;
37945;SDS011;23769;52.478;13.448;2022-12-16T12:24:56;49.80;;;24.15;;
37945;SDS011;23769;52.478;13.448;2022-12-16T12:27:46;47.28;;;23.95;;
37945;SDS011;23769;52.478;13.448;2022-12-16T12:30:36;51.25;;;25.25;;
37945;SDS011;23769;52.478;13.448;2022-12-16T12:33:26;44.70;;;23.13;;
37945;SDS011;23769;52.478;13.448;2022-12-16T12:36:14;44.35;;;23.80;;
37945;SDS011;23769;52.478;13.448;2022-12-16T12:39:02;43.53;;;23.80;;
37945;SDS011;23769;52.478;13.448;2022-12-16T12:44:59;40.15;;;20.17;;
37945;SDS011;23769;52.478;13.448;2022-12-16T12:47:49;41.35;;;22.20;;
37945;SDS011;23769;52.478;13.448;2022-12-16T12:50:43;38.70;;;19.38;;
37945;SDS011;23769;52.478;13.448;2022-12-16T12:53:43;39.83;;;19.33;;
37945;SDS011;23769;52.478;13.448;2022-12-16T12:56:33;40.05;;;21.13;;
37945;SDS011;23769;52.478;13.448;2022-12-16T12:59:22;44.88;;;21.67;;
37945;SDS011;23769;52.478;13.448;2022-12-16T13:02:11;43.38;;;22.38;;
37945;SDS011;23769;52.478;13.448;2022-12-16T13:04:57;90.90;;;38.28;;
37945;SDS011;23769;52.478;13.448;2022-12-16T13:07:42;44.13;;;21.95;;
37945;SDS011;23769;52.478;13.448;2022-12-16T13:10:31;42.72;;;21.67;;
37945;SDS011;23769;52.478;13.448;2022-12-16T13:13:32;39.92;;;20.98;;
37945;SDS011;23769;52.478;13.448;2022-12-16T13:19:42;39.08;;;20.58;;
37945;SDS011;23769;52.478;13.448;2022-12-16T13:22:27;38.15;;;20.92;;
37945;SDS011;23769;52.478;13.448;2022-12-16T13:25:28;41.05;;;20.77;;
37945;SDS011;23769;52.478;13.448;2022-12-16T13:28:19;44.35;;;22.08;;
37945;SDS011;23769;52.478;13.448;2022-12-16T13:31:04;41.05;;;22.02;;
37945;SDS011;23769;52.478;13.448;2022-12-16T13:33:49;43.35;;;23.15;;
37945;SDS011;23769;52.478;13.448;2022-12-16T13:36:36;45.50;;;23.17;;
37945;SDS011;23769;52.478;13.448;2022-12-16T13:39:22;40.42;;;21.88;;
37945;SDS011;23769;52.478;13.448;2022-12-16T13:45:23;42.90;;;23.10;;
37945;SDS011;23769;52.478;13.448;2022-12-16T13:48:25;44.30;;;23.42;;
37945;SDS011;23769;52.478;13.448;2022-12-16T13:51:23;45.97;;;25.30;;
37945;SDS011;23769;52.478;13.448;2022-12-16T13:54:30;45.35;;;23.23;;
37945;SDS011;23769;52.478;13.448;2022-12-16T13:57:17;43.55;;;23.55;;
37945;SDS011;23769;52.478;13.448;2022-12-16T14:00:03;49.63;;;24.05;;
37945;SDS011;23769;52.478;13.448;2022-12-16T14:02:51;47.40;;;24.58;;
37945;SDS011;23769;52.478;13.448;2022-12-16T14:05:36;46.88;;;24.58;;
37945;SDS011;23769;52.478;13.448;2022-12-16T14:08:21;52.63;;;24.20;;
37945;SDS011;23769;52.478;13.448;2022-12-16T14:11:12;42.08;;;21.95;;
37945;SDS011;23769;52.478;13.448;2022-12-16T14:13:59;49.58;;;23.83;;
37945;SDS011;23769;52.478;13.448;2022-12-16T14:16:46;41.72;;;23.10;;
37945;SDS011;23769;52.478;13.448;2022-12-16T14:19:36;42.67;;;22.70;;
37945;SDS011;23769;52.478;13.448;2022-12-16T14:22:27;40.53;;;22.50;;
37945;SDS011;23769;52.478;13.448;2022-12-16T14:25:14;43.55;;;21.42;;
37945;SDS011;23769;52.478;13.448;2022-12-16T14:28:01;45.20;;;20.88;;
37945;SDS011;23769;52.478;13.448;2022-12-16T14:31:00;46.40;;;24.73;;
37945;SDS011;23769;52.478;13.448;2022-12-16T14:33:50;51.42;;;25.60;;
37945;SDS011;23769;52.478;13.448;2022-12-16T14:36:36;44.38;;;22.70;;
37945;SDS011;23769;52.478;13.448;2022-12-16T14:39:22;45.08;;;24.10;;
37945;SDS011;23769;52.478;13.448;2022-12-16T14:42:13;44.08;;;23.35;;
37945;SDS011;23769;52.478;13.448;2022-12-16T14:45:01;44.60;;;22.98;;
37945;SDS011;23769;52.478;13.448;2022-12-16T14:47:46;49.45;;;23.27;;
37945;SDS011;23769;52.478;13.448;2022-12-16T14:50:31;50.40;;;23.35;;
37945;SDS011;23769;52.478;13.448;2022-12-16T14:56:09;45.83;;;25.23;;
37945;SDS011;23769;52.478;13.448;2022-12-16T14:59:08;50.58;;;25.05;;
37945;SDS011;23769;52.478;13.448;2022-12-16T15:01:54;47.08;;;24.60;;
37945;SDS011;23769;52.478;13.448;2022-12-16T15:04:40;48.65;;;23.90;;
37945;SDS011;23769;52.478;13.448;2022-12-16T15:07:25;46.35;;;23.42;;
37945;SDS011;23769;52.478;13.448;2022-12-16T15:10:11;48.33;;;24.48;;
37945;SDS011;23769;52.478;13.448;2022-12-16T15:12:57;46.85;;;24.08;;
37945;SDS011;23769;52.478;13.448;2022-12-16T15:15:42;53.97;;;25.65;;
37945;SDS011;23769;52.478;13.448;2022-12-16T15:18:30;54.03;;;25.92;;
37945;SDS011;23769;52.478;13.448;2022-12-16T15:21:15;56.47;;;28.33;;
37945;SDS011;23769;52.478;13.448;2022-12-16T15:24:00;52.55;;;26.10;;
37945;SDS011;23769;52.478;13.448;2022-12-16T15:26:45;59.38;;;27.33;;
37945;SDS011;23769;52.478;13.448;2022-12-16T15:29:31;52.67;;;28.42;;
37945;SDS011;23769;52.478;13.448;2022-12-16T15:32:30;54.60;;;27.95;;
37945;SDS011;23769;52.478;13.448;2022-12-16T15:35:26;57.17;;;27.10;;
37945;SDS011;23769;52.478;13.448;2022-12-16T15:38:15;57.20;;;28.58;;
37945;SDS011;23769;52.478;13.448;2022-12-16T15:41:02;53.95;;;28.00;;
37945;SDS011;23769;52.478;13.448;2022-12-16T15:43:48;53.28;;;27.00;;
37945;SDS011;23769;52.478;13.448;2022-12-16T15:46:46;56.47;;;27.05;;
37945;SDS011;23769;52.478;13.448;2022-12-16T15:49:31;53.05;;;27.15;;